Pleasant Mount, Pennsylvania
Current Conditions -  °F | °C
As of 12:54 AM on Friday 31 Oct 2014 (Local Time) from KAVP Reporting Station
Clear Clear  
Wind Chill: 33°   Ceiling: Unl
Heat Index: 38°   Visibility: 10mi
Dew Point: 31°   Wind: 6mph
Humidity: 76%   Direction: 110°ESE
Pressure: 30.01"   Gusts: NA
Location:  41.74°N, 75.43°W
Report Text: KAVP 310454Z AUTO 11005KT 10SM CLR 03/M01 A3001 RMK AO2 SLP167 T00331006 401000028
Loading
Personal Weather Stations






























Interactive Weather Map
Tropical Storm Tracking
New forecast layout! Learn more

10-Day Weather Forecast

Advertisements
Track Severe Weather on mobile